Alamosa, Colorado
Current Conditions -  °F | °C
As of 2:52 PM on Sunday 25 Jan 2015 (Local Time) from KALS Reporting Station
Clear Clear  
Wind Chill:   Ceiling: Unl
Heat Index:   Visibility: 10mi
Dew Point: -8°   Wind: 5mph
Humidity: 30%   Direction: 20°NNE
Pressure: 30.27"   Gusts: NA
Location:  37.47°N, 105.87°W
Report Text: KALS 252152Z AUTO 02004KT 10SM CLR 09/M08 A3027 RMK AO2 SLP272 T00891078
Loading
Personal Weather Stations






























Interactive Weather Map New forecast layout! Learn more

10-Day Weather Forecast

Advertisements
Track Severe Weather on mobile